createdAt,value
2019-05-06T00:01:34.377Z,1.16
2019-05-06T00:04:04.956Z,1.08
2019-05-06T00:06:34.559Z,1.08
2019-05-06T00:09:04.860Z,1.05
2019-05-06T00:11:34.647Z,1.07
2019-05-06T00:14:04.072Z,1.01
2019-05-06T00:16:34.804Z,0.98
2019-05-06T00:19:04.962Z,0.89
2019-05-06T00:21:35.513Z,0.93
2019-05-06T00:24:04.705Z,0.93
2019-05-06T00:26:44.859Z,0.88
2019-05-06T00:29:19.197Z,0.81
2019-05-06T00:31:47.983Z,0.80
2019-05-06T00:34:16.855Z,0.80
2019-05-06T00:36:45.846Z,0.78
2019-05-06T00:39:36.034Z,0.83
2019-05-06T00:42:09.558Z,0.83
2019-05-06T00:44:38.426Z,0.90
2019-05-06T00:47:07.402Z,0.97
2019-05-06T00:49:36.514Z,1.00
2019-05-06T00:52:05.834Z,1.05
2019-05-06T00:54:37.602Z,1.05
2019-05-06T00:57:06.502Z,1.03
2019-05-06T00:59:35.415Z,1.07
2019-05-06T01:02:04.714Z,0.95
2019-05-06T01:04:34.001Z,0.95
2019-05-06T01:07:03.955Z,0.74
2019-05-06T01:09:34.394Z,0.74
2019-05-06T01:12:03.798Z,0.76
2019-05-06T01:14:37.765Z,0.78
2019-05-06T01:17:06.603Z,0.65
2019-05-06T01:19:35.581Z,0.53
2019-05-06T01:22:04.707Z,0.55
2019-05-06T01:24:34.484Z,0.55
2019-05-06T01:27:04.091Z,0.52
2019-05-06T01:29:34.767Z,0.49
2019-05-06T01:32:03.817Z,0.41
2019-05-06T01:34:33.878Z,0.40
2019-05-06T01:37:03.696Z,0.44
2019-05-06T01:39:57.546Z,0.39
2019-05-06T01:42:34.460Z,0.34
2019-05-06T01:45:04.748Z,0.39
2019-05-06T01:47:34.563Z,0.42
2019-05-06T01:50:04.492Z,0.38
2019-05-06T01:52:34.492Z,0.36
2019-05-06T01:55:04.841Z,0.42
2019-05-06T01:57:33.893Z,0.52
2019-05-06T02:00:04.785Z,0.49
2019-05-06T02:02:34.371Z,0.60
2019-05-06T02:05:04.799Z,0.68
2019-05-06T02:07:34.966Z,0.68
2019-05-06T02:10:04.092Z,0.72
2019-05-06T02:12:34.222Z,0.65
2019-05-06T02:15:03.971Z,0.65
2019-05-06T02:17:34.550Z,0.49
2019-05-06T02:20:04.281Z,0.42
2019-05-06T02:22:46.203Z,0.29
2019-05-06T02:25:34.601Z,0.28
2019-05-06T02:28:04.010Z,0.27
2019-05-06T02:30:50.507Z,0.29
2019-05-06T02:33:29.680Z,0.33
2019-05-06T02:36:06.550Z,0.45
2019-05-06T02:38:45.871Z,0.37
2019-05-06T02:41:05.507Z,0.32
2019-05-06T02:43:34.890Z,0.31
2019-05-06T02:46:04.358Z,0.34
2019-05-06T02:48:47.829Z,0.38
2019-05-06T02:51:18.606Z,0.44
2019-05-06T02:53:47.410Z,0.47
2019-05-06T02:56:16.247Z,0.51
2019-05-06T02:58:45.293Z,0.52
2019-05-06T03:01:14.564Z,0.52
2019-05-06T03:03:43.835Z,0.54
2019-05-06T03:06:13.232Z,0.55
2019-05-06T03:08:43.372Z,0.55
2019-05-06T03:11:13.557Z,0.54
2019-05-06T03:13:43.953Z,0.51
2019-05-06T03:16:14.333Z,0.49
2019-05-06T03:18:43.709Z,0.50
2019-05-06T03:21:33.639Z,0.50
2019-05-06T03:24:23.470Z,0.37
2019-05-06T03:26:56.125Z,0.35
2019-05-06T03:29:25.346Z,0.33
2019-05-06T03:31:56.200Z,0.32
2019-05-06T03:34:49.301Z,0.20
2019-05-06T03:36:56.536Z,0.18
2019-05-06T03:39:25.798Z,0.09
2019-05-06T03:41:54.604Z,0.13
2019-05-06T03:44:24.119Z,0.14
2019-05-06T03:47:27.286Z,0.13
2019-05-06T03:49:56.466Z,0.12
2019-05-06T03:52:29.026Z,0.09
2019-05-06T03:54:59.115Z,0.07
2019-05-06T03:57:28.754Z,0.11
2019-05-06T04:00:00.270Z,0.18
2019-05-06T04:02:39.408Z,0.19
2019-05-06T04:05:05.954Z,0.17
2019-05-06T04:07:45.451Z,0.27
2019-05-06T04:10:13.638Z,0.35
2019-05-06T04:12:44.460Z,0.38
2019-05-06T04:15:14.321Z,0.45
2019-05-06T04:17:53.944Z,0.48
2019-05-06T04:20:45.130Z,0.50
2019-05-06T04:23:36.323Z,0.57
2019-05-06T04:26:32.956Z,0.63
2019-05-06T04:29:08.098Z,0.71
2019-05-06T04:31:43.340Z,0.77
2019-05-06T04:34:15.870Z,0.83
2019-05-06T04:36:43.984Z,0.89
2019-05-06T04:39:13.065Z,0.93
2019-05-06T04:41:43.405Z,1.02
2019-05-06T04:44:13.918Z,1.04
2019-05-06T04:46:44.426Z,1.06
2019-05-06T04:49:23.714Z,1.10
2019-05-06T04:51:59.083Z,1.14
2019-05-06T04:54:28.184Z,1.14
2019-05-06T04:56:57.086Z,1.27
2019-05-06T04:59:25.916Z,1.33
2019-05-06T05:01:54.773Z,1.33
2019-05-06T05:04:31.829Z,1.42
2019-05-06T05:06:54.734Z,1.42
2019-05-06T05:09:23.736Z,1.45
2019-05-06T05:12:02.492Z,1.52
2019-05-06T05:14:42.285Z,1.61
2019-05-06T05:17:39.127Z,1.66
2019-05-06T05:20:08.402Z,1.77
2019-05-06T05:22:37.218Z,1.85
2019-05-06T05:25:06.128Z,1.90
2019-05-06T05:27:35.530Z,1.90
2019-05-06T05:30:04.444Z,2.01
2019-05-06T05:32:34.314Z,2.08
2019-05-06T05:35:03.189Z,2.12
2019-05-06T05:37:32.847Z,2.17
2019-05-06T05:40:03.072Z,2.21
2019-05-06T05:42:49.448Z,2.24
2019-05-06T05:45:18.329Z,2.34
2019-05-06T05:47:48.019Z,2.41
2019-05-06T05:50:22.807Z,2.49
2019-05-06T05:52:52.133Z,2.64
2019-05-06T05:55:21.970Z,2.83
2019-05-06T05:57:51.885Z,3.07
2019-05-06T06:00:22.531Z,3.42
2019-05-06T06:02:53.043Z,3.88
2019-05-06T06:05:23.020Z,4.37
2019-05-06T06:07:52.990Z,4.76
2019-05-06T06:10:52.246Z,5.06
2019-05-06T06:13:22.275Z,5.08
2019-05-06T06:16:12.904Z,5.14
2019-05-06T06:19:06.157Z,5.45
2019-05-06T06:21:42.802Z,5.63
2019-05-06T06:24:22.687Z,5.95
2019-05-06T06:26:52.050Z,6.32
2019-05-06T06:29:22.774Z,6.99
2019-05-06T06:32:20.132Z,7.47
2019-05-06T06:35:11.435Z,8.01
2019-05-06T06:37:56.571Z,8.39
2019-05-06T06:40:27.701Z,8.73
2019-05-06T06:43:02.142Z,8.88
2019-05-06T06:45:32.548Z,9.25
2019-05-06T06:48:03.145Z,9.22
2019-05-06T06:50:34.969Z,9.59
2019-05-06T06:53:03.943Z,9.62
2019-05-06T06:55:32.853Z,9.77
2019-05-06T06:58:11.875Z,9.73
2019-05-06T07:00:47.102Z,10.07
2019-05-06T07:03:25.537Z,10.57
2019-05-06T07:06:02.330Z,10.37
2019-05-06T07:08:36.753Z,10.76
2019-05-06T07:11:02.259Z,11.03
2019-05-06T07:13:32.710Z,11.08
2019-05-06T07:16:02.941Z,11.24
2019-05-06T07:18:33.193Z,11.34
2019-05-06T07:21:24.032Z,11.79
2019-05-06T07:23:53.074Z,11.91
2019-05-06T07:26:24.173Z,11.90
2019-05-06T07:28:53.118Z,11.79
2019-05-06T07:31:25.870Z,12.05
2019-05-06T07:33:52.870Z,12.31
2019-05-06T07:36:22.839Z,11.82
2019-05-06T07:38:52.687Z,12.35
2019-05-06T07:41:36.294Z,12.37
2019-05-06T07:44:16.636Z,12.41
2019-05-06T07:46:53.341Z,12.71
2019-05-06T07:49:23.560Z,12.80
2019-05-06T07:51:53.075Z,12.93
2019-05-06T07:54:22.161Z,12.83
2019-05-06T07:56:52.602Z,12.94
2019-05-06T07:59:22.464Z,12.89
2019-05-06T08:01:53.894Z,12.78
2019-05-06T08:04:23.065Z,12.76
2019-05-06T08:06:52.344Z,11.40
2019-05-06T08:09:22.102Z,11.99
2019-05-06T08:11:57.002Z,12.21
2019-05-06T08:14:42.936Z,12.19
2019-05-06T08:17:18.114Z,12.14
2019-05-06T08:19:46.918Z,12.05
2019-05-06T08:22:19.598Z,12.07
2019-05-06T08:24:48.488Z,12.23
2019-05-06T08:27:17.379Z,12.15
2019-05-06T08:29:46.176Z,12.51
2019-05-06T08:32:15.076Z,12.66
2019-05-06T08:34:43.851Z,12.71
2019-05-06T08:37:31.934Z,12.68
2019-05-06T08:40:03.307Z,12.68
2019-05-06T08:42:32.897Z,12.75
2019-05-06T08:45:02.370Z,12.81
2019-05-06T08:47:32.956Z,12.25
2019-05-06T08:50:09.573Z,11.75
2019-05-06T08:52:56.037Z,11.30
2019-05-06T08:55:32.616Z,11.04
2019-05-06T08:58:02.946Z,11.37
2019-05-06T09:00:33.009Z,11.48
2019-05-06T09:03:04.370Z,11.64
2019-05-06T09:05:33.074Z,12.00
2019-05-06T09:08:03.599Z,11.77
2019-05-06T09:10:32.657Z,11.51
2019-05-06T09:13:02.034Z,11.20
2019-05-06T09:15:32.694Z,10.80
2019-05-06T09:18:03.022Z,10.63
2019-05-06T09:20:32.649Z,10.44
2019-05-06T09:23:04.514Z,10.20
2019-05-06T09:25:36.297Z,10.12
2019-05-06T09:28:27.153Z,10.16
2019-05-06T09:31:02.250Z,10.23
2019-05-06T09:33:37.925Z,10.54
2019-05-06T09:36:06.793Z,10.58
2019-05-06T09:38:35.568Z,10.48
2019-05-06T09:41:05.043Z,10.39
2019-05-06T09:43:33.994Z,10.22
2019-05-06T09:46:02.875Z,10.02
2019-05-06T09:48:52.796Z,9.85
2019-05-06T09:51:22.096Z,9.70
2019-05-06T09:54:19.029Z,9.52
2019-05-06T09:56:53.338Z,9.23
2019-05-06T09:59:22.443Z,8.98
2019-05-06T10:01:52.771Z,8.75
2019-05-06T10:04:22.248Z,8.65
2019-05-06T10:06:57.337Z,8.44
2019-05-06T10:09:24.952Z,8.38
2019-05-06T10:11:52.687Z,8.31
2019-05-06T10:14:23.371Z,8.22
2019-05-06T10:16:52.462Z,8.17
2019-05-06T10:19:22.631Z,8.10
2019-05-06T10:21:53.065Z,8.08
2019-05-06T10:24:24.772Z,8.06
2019-05-06T10:26:57.817Z,8.11
2019-05-06T10:29:43.647Z,8.17
2019-05-06T10:32:26.931Z,8.24
2019-05-06T10:34:58.899Z,8.36
2019-05-06T10:37:58.916Z,8.41
2019-05-06T10:40:32.971Z,8.66
2019-05-06T10:43:22.126Z,8.81
2019-05-06T10:45:52.022Z,8.99
2019-05-06T10:48:22.458Z,9.17
2019-05-06T10:50:54.299Z,9.31
2019-05-06T10:53:24.385Z,9.45
2019-05-06T10:55:57.870Z,9.51
2019-05-06T10:58:26.806Z,9.53
2019-05-06T11:01:07.635Z,9.64
2019-05-06T11:03:36.398Z,9.64
2019-05-06T11:06:05.369Z,9.68
2019-05-06T11:08:34.261Z,9.62
2019-05-06T11:11:14.842Z,9.76
2019-05-06T11:13:33.573Z,9.82
2019-05-06T11:16:03.399Z,9.85
2019-05-06T11:18:33.551Z,9.89
2019-05-06T11:21:03.402Z,9.89
2019-05-06T11:23:33.819Z,9.90
2019-05-06T11:26:03.215Z,9.84
2019-05-06T11:28:52.071Z,9.80
2019-05-06T11:31:38.768Z,9.78
2019-05-06T11:34:25.461Z,9.83
2019-05-06T11:37:14.986Z,9.79
2019-05-06T11:39:44.133Z,9.83
2019-05-06T11:42:27.674Z,9.89
2019-05-06T11:44:44.305Z,9.95
2019-05-06T11:47:13.202Z,9.96
2019-05-06T11:49:44.128Z,9.77
2019-05-06T11:52:13.073Z,9.55
2019-05-06T11:54:42.373Z,9.43
2019-05-06T11:57:13.934Z,9.19
2019-05-06T11:59:45.503Z,9.07
2019-05-06T12:02:23.415Z,8.96
2019-05-06T12:04:53.078Z,8.89
2019-05-06T12:07:26.791Z,8.83
2019-05-06T12:10:03.032Z,8.74
2019-05-06T12:12:39.013Z,8.68
2019-05-06T12:15:13.291Z,8.60
2019-05-06T12:17:45.167Z,8.59
2019-05-06T12:20:22.268Z,8.57
2019-05-06T12:22:57.485Z,8.56
2019-05-06T12:25:37.181Z,8.60
2019-05-06T12:28:17.645Z,8.59
2019-05-06T12:30:48.960Z,8.60
2019-05-06T12:33:39.151Z,8.71
2019-05-06T12:36:21.272Z,8.72
2019-05-06T12:39:15.730Z,8.74
2019-05-06T12:42:16.708Z,8.77
2019-05-06T12:44:56.402Z,8.82
2019-05-06T12:47:59.900Z,8.89
2019-05-06T12:50:29.693Z,8.89
2019-05-06T12:53:07.017Z,9.03
2019-05-06T12:55:39.136Z,9.10
2019-05-06T12:58:13.577Z,9.19
2019-05-06T13:00:45.910Z,9.25
2019-05-06T13:03:14.982Z,9.33
2019-05-06T13:05:46.712Z,9.44
2019-05-06T13:08:28.343Z,9.49
2019-05-06T13:11:02.866Z,9.56
2019-05-06T13:13:37.647Z,9.63
2019-05-06T13:16:12.550Z,9.70
2019-05-06T13:18:47.662Z,9.82
2019-05-06T13:21:16.329Z,9.93
2019-05-06T13:23:55.852Z,9.96
2019-05-06T13:26:25.299Z,9.98
2019-05-06T13:29:04.099Z,9.96
2019-05-06T13:31:33.924Z,9.94
2019-05-06T13:34:06.348Z,9.99
2019-05-06T13:36:47.438Z,9.95
2019-05-06T13:39:16.565Z,9.98
2019-05-06T13:41:48.806Z,9.92
2019-05-06T13:44:22.804Z,9.87
2019-05-06T13:47:02.797Z,9.88
2019-05-06T13:49:52.238Z,9.98
2019-05-06T13:52:25.021Z,10.10
2019-05-06T13:54:54.108Z,10.14
2019-05-06T13:57:32.662Z,10.26
2019-05-06T14:00:03.149Z,10.35
2019-05-06T14:02:49.411Z,10.47
2019-05-06T14:05:18.560Z,10.67
2019-05-06T14:07:47.609Z,10.86
2019-05-06T14:10:16.861Z,11.01
2019-05-06T14:12:45.999Z,10.94
2019-05-06T14:15:23.179Z,11.22
2019-05-06T14:17:56.880Z,11.15
2019-05-06T14:20:33.551Z,11.40
2019-05-06T14:23:02.871Z,11.50
2019-05-06T14:25:52.914Z,11.89
2019-05-06T14:28:32.438Z,11.94
2019-05-06T14:31:25.771Z,11.54
2019-05-06T14:33:57.902Z,11.35
2019-05-06T14:36:35.913Z,11.17
2019-05-06T14:39:16.930Z,11.01
2019-05-06T14:41:54.644Z,10.89
2019-05-06T14:44:27.306Z,10.63
2019-05-06T14:47:13.488Z,10.48
2019-05-06T14:49:43.288Z,10.39
2019-05-06T14:52:13.811Z,10.23
2019-05-06T14:54:53.226Z,10.13
2019-05-06T14:57:23.998Z,9.93
2019-05-06T14:59:55.608Z,9.74
2019-05-06T15:02:27.175Z,9.66
2019-05-06T15:04:56.595Z,9.50
2019-05-06T15:07:33.833Z,9.36
2019-05-06T15:10:16.502Z,9.24
2019-05-06T15:12:33.431Z,9.19
2019-05-06T15:15:03.777Z,9.19
2019-05-06T15:17:36.528Z,9.16
2019-05-06T15:20:03.952Z,9.12
2019-05-06T15:22:37.904Z,9.07
2019-05-06T15:25:06.756Z,9.05
2019-05-06T15:27:37.274Z,9.07
2019-05-06T15:30:09.709Z,9.08
2019-05-06T15:32:39.538Z,9.11
2019-05-06T15:35:18.810Z,9.12
2019-05-06T15:37:55.959Z,9.06
2019-05-06T15:40:32.977Z,9.05
2019-05-06T15:42:55.446Z,9.08
2019-05-06T15:45:24.297Z,9.10
2019-05-06T15:47:53.112Z,9.15
2019-05-06T15:50:23.146Z,9.19
2019-05-06T15:52:54.010Z,9.25
2019-05-06T15:55:22.907Z,9.26
2019-05-06T15:57:52.598Z,9.32
2019-05-06T16:00:22.868Z,9.47
2019-05-06T16:02:53.046Z,9.59
2019-05-06T16:05:26.179Z,9.73
2019-05-06T16:07:53.078Z,9.81
2019-05-06T16:10:22.691Z,9.94
2019-05-06T16:12:53.457Z,9.99
2019-05-06T16:15:24.760Z,9.96
2019-05-06T16:17:53.589Z,9.96
2019-05-06T16:20:23.025Z,9.91
2019-05-06T16:22:57.867Z,9.93
2019-05-06T16:25:26.978Z,9.85
2019-05-06T16:27:57.115Z,9.87
2019-05-06T16:30:26.282Z,9.69
2019-05-06T16:32:55.153Z,9.90
2019-05-06T16:35:24.225Z,9.99
2019-05-06T16:37:53.117Z,10.05
2019-05-06T16:40:23.120Z,10.01
2019-05-06T16:42:54.451Z,9.96
2019-05-06T16:45:23.393Z,9.96
2019-05-06T16:47:52.603Z,9.95
2019-05-06T16:50:44.405Z,9.94
2019-05-06T16:53:13.255Z,9.94
2019-05-06T16:56:05.833Z,9.92
2019-05-06T16:58:37.523Z,9.90
2019-05-06T17:01:14.980Z,9.87
2019-05-06T17:03:53.199Z,9.89
2019-05-06T17:06:27.304Z,9.92
2019-05-06T17:08:56.108Z,9.96
2019-05-06T17:11:30.279Z,9.96
2019-05-06T17:13:56.872Z,9.93
2019-05-06T17:16:25.732Z,9.92
2019-05-06T17:18:56.716Z,9.91
2019-05-06T17:21:25.417Z,9.88
2019-05-06T17:24:02.385Z,9.82
2019-05-06T17:26:33.818Z,9.72
2019-05-06T17:29:09.807Z,9.66
2019-05-06T17:32:03.954Z,9.56
2019-05-06T17:34:35.789Z,9.49
2019-05-06T17:37:15.933Z,9.41
2019-05-06T17:39:45.126Z,9.34
2019-05-06T17:42:14.188Z,9.24
2019-05-06T17:44:43.152Z,9.17
2019-05-06T17:47:27.121Z,9.18
2019-05-06T17:49:56.029Z,9.15
2019-05-06T17:52:24.797Z,9.10
2019-05-06T17:54:53.760Z,9.07
2019-05-06T17:57:22.725Z,9.07
2019-05-06T17:59:52.816Z,9.07
2019-05-06T18:02:23.487Z,9.08
2019-05-06T18:04:53.224Z,9.08
2019-05-06T18:07:22.425Z,9.05
2019-05-06T18:09:52.231Z,9.05
2019-05-06T18:12:23.182Z,9.03
2019-05-06T18:14:56.442Z,9.05
2019-05-06T18:17:25.679Z,9.03
2019-05-06T18:19:54.372Z,9.00
2019-05-06T18:22:23.242Z,9.01
2019-05-06T18:24:52.647Z,8.98
2019-05-06T18:27:22.608Z,8.96
2019-05-06T18:29:53.272Z,8.94
2019-05-06T18:32:23.359Z,8.91
2019-05-06T18:34:52.789Z,8.90
2019-05-06T18:37:23.475Z,8.87
2019-05-06T18:39:53.062Z,8.81
2019-05-06T18:42:23.696Z,8.76
2019-05-06T18:44:53.529Z,8.75
2019-05-06T18:47:22.511Z,8.69
2019-05-06T18:49:52.312Z,8.65
2019-05-06T18:52:22.886Z,8.65
2019-05-06T18:54:52.484Z,8.62
2019-05-06T18:57:22.656Z,8.54
2019-05-06T18:59:53.257Z,8.57
2019-05-06T19:02:22.992Z,8.56
2019-05-06T19:05:13.092Z,8.56
2019-05-06T19:07:43.647Z,8.57
2019-05-06T19:10:18.453Z,8.52
2019-05-06T19:12:47.447Z,8.56
2019-05-06T19:15:16.323Z,8.55
2019-05-06T19:17:45.434Z,8.54
2019-05-06T19:20:14.321Z,8.57
2019-05-06T19:22:43.594Z,8.56
2019-05-06T19:25:14.626Z,8.52
2019-05-06T19:27:43.519Z,8.50
2019-05-06T19:30:13.031Z,8.45
2019-05-06T19:32:45.372Z,8.43
2019-05-06T19:35:14.488Z,8.42
2019-05-06T19:37:43.965Z,8.37
2019-05-06T19:40:13.252Z,8.34
2019-05-06T19:42:49.422Z,8.34
2019-05-06T19:45:17.656Z,8.29
2019-05-06T19:47:46.530Z,8.25
2019-05-06T19:50:20.991Z,8.25
2019-05-06T19:52:52.867Z,8.22
2019-05-06T19:55:23.071Z,8.19
2019-05-06T19:57:52.687Z,8.12
2019-05-06T20:00:24.354Z,8.13
2019-05-06T20:02:54.289Z,8.07
2019-05-06T20:05:30.360Z,8.04
2019-05-06T20:08:33.611Z,8.01
2019-05-06T20:11:15.185Z,7.94
2019-05-06T20:13:45.093Z,7.91
2019-05-06T20:16:14.024Z,7.83
2019-05-06T20:18:43.002Z,7.78
2019-05-06T20:21:11.884Z,7.75
2019-05-06T20:23:42.508Z,7.73
2019-05-06T20:26:12.428Z,7.62
2019-05-06T20:28:42.989Z,7.58
2019-05-06T20:31:12.088Z,7.53
2019-05-06T20:33:42.232Z,7.48
2019-05-06T20:36:12.604Z,7.40
2019-05-06T20:38:42.339Z,7.38
2019-05-06T20:41:12.595Z,7.27
2019-05-06T20:43:42.331Z,7.24
2019-05-06T20:46:12.526Z,7.20
2019-05-06T20:48:42.172Z,7.13
2019-05-06T20:51:12.315Z,7.11
2019-05-06T20:53:43.199Z,7.04
2019-05-06T20:56:12.508Z,7.00
2019-05-06T20:58:43.527Z,6.89
2019-05-06T21:01:13.247Z,6.82
2019-05-06T21:03:42.534Z,6.73
2019-05-06T21:06:13.167Z,6.65
2019-05-06T21:08:43.191Z,6.60
2019-05-06T21:11:25.770Z,6.53
2019-05-06T21:13:43.291Z,6.49
2019-05-06T21:16:12.969Z,6.41
2019-05-06T21:18:42.064Z,6.37
2019-05-06T21:21:13.604Z,6.31
2019-05-06T21:23:44.498Z,6.30
2019-05-06T21:26:13.716Z,6.29
2019-05-06T21:28:46.379Z,6.30
2019-05-06T21:31:14.401Z,6.32
2019-05-06T21:33:45.165Z,6.35
2019-05-06T21:36:14.226Z,6.39
2019-05-06T21:38:44.108Z,6.41
2019-05-06T21:41:17.732Z,6.43
2019-05-06T21:43:49.684Z,6.45
2019-05-06T21:46:15.969Z,6.44
2019-05-06T21:48:44.958Z,6.44
2019-05-06T21:51:15.157Z,6.45
2019-05-06T21:53:44.045Z,6.41
2019-05-06T21:56:13.176Z,6.36
2019-05-06T21:58:42.762Z,6.28
2019-05-06T22:01:11.857Z,6.20
2019-05-06T22:03:43.193Z,6.12
2019-05-06T22:06:12.995Z,6.03
2019-05-06T22:08:42.468Z,5.93
2019-05-06T22:11:11.349Z,5.85
2019-05-06T22:13:42.387Z,5.80
2019-05-06T22:16:12.267Z,5.74
2019-05-06T22:18:43.232Z,5.66
2019-05-06T22:21:23.350Z,5.61
2019-05-06T22:23:54.471Z,5.53
2019-05-06T22:26:23.848Z,5.47
2019-05-06T22:28:52.759Z,5.39
2019-05-06T22:31:24.178Z,5.32
2019-05-06T22:33:52.464Z,5.26
2019-05-06T22:36:22.678Z,5.21
2019-05-06T22:38:53.053Z,5.16
2019-05-06T22:41:23.122Z,5.12
2019-05-06T22:43:53.267Z,5.08
2019-05-06T22:46:23.425Z,5.07
2019-05-06T22:48:54.415Z,5.03
2019-05-06T22:51:23.033Z,5.01
2019-05-06T22:53:53.246Z,4.96
2019-05-06T22:56:23.001Z,4.97
2019-05-06T22:58:52.595Z,4.97
2019-05-06T23:01:49.491Z,4.96
2019-05-06T23:04:19.240Z,4.95
2019-05-06T23:06:48.068Z,4.89
2019-05-06T23:09:16.810Z,4.89
2019-05-06T23:11:45.513Z,4.85
2019-05-06T23:14:27.856Z,4.85
2019-05-06T23:16:46.900Z,4.82
2019-05-06T23:19:15.592Z,4.78
2019-05-06T23:21:44.336Z,4.75
2019-05-06T23:24:13.351Z,4.71
2019-05-06T23:26:42.221Z,4.68
2019-05-06T23:29:12.946Z,4.62
2019-05-06T23:31:42.489Z,4.59
2019-05-06T23:34:12.532Z,4.57
2019-05-06T23:37:27.722Z,4.52
2019-05-06T23:40:35.980Z,4.48
2019-05-06T23:43:42.752Z,4.43
2019-05-06T23:46:47.739Z,4.33
2019-05-06T23:49:52.804Z,4.29
2019-05-06T23:52:57.792Z,4.25
2019-05-06T23:56:02.945Z,4.18
2019-05-06T23:58:32.368Z,4.14
